sensor_id;sensor_type;location;lat;lon;timestamp;pressure;altitude;pressure_sealevel;temperature
15144;BMP180;7672;50.834;6.286;2022-10-17T00:00:54;99810.47;;;19.38
15144;BMP180;7672;50.834;6.286;2022-10-17T00:03:21;99824.03;;;19.42
15144;BMP180;7672;50.834;6.286;2022-10-17T00:05:48;99815.38;;;19.46
15144;BMP180;7672;50.834;6.286;2022-10-17T00:08:17;99815.19;;;19.52
15144;BMP180;7672;50.834;6.286;2022-10-17T00:10:45;99809.94;;;19.56
15144;BMP180;7672;50.834;6.286;2022-10-17T00:13:12;99810.63;;;19.61
15144;BMP180;7672;50.834;6.286;2022-10-17T00:15:43;99812.09;;;19.68
15144;BMP180;7672;50.834;6.286;2022-10-17T00:18:10;99811.09;;;19.74
15144;BMP180;7672;50.834;6.286;2022-10-17T00:20:37;99801.50;;;19.79
15144;BMP180;7672;50.834;6.286;2022-10-17T00:23:04;99805.63;;;19.84
15144;BMP180;7672;50.834;6.286;2022-10-17T00:25:30;99803.72;;;19.90
15144;BMP180;7672;50.834;6.286;2022-10-17T00:27:57;99803.56;;;19.96
15144;BMP180;7672;50.834;6.286;2022-10-17T00:30:24;99806.75;;;20.03
15144;BMP180;7672;50.834;6.286;2022-10-17T00:32:51;99809.16;;;20.07
15144;BMP180;7672;50.834;6.286;2022-10-17T00:35:18;99810.75;;;20.11
15144;BMP180;7672;50.834;6.286;2022-10-17T00:37:44;99814.06;;;20.15
15144;BMP180;7672;50.834;6.286;2022-10-17T00:40:11;99815.69;;;20.17
15144;BMP180;7672;50.834;6.286;2022-10-17T00:42:38;99816.53;;;20.18
15144;BMP180;7672;50.834;6.286;2022-10-17T00:45:18;99809.56;;;20.21
15144;BMP180;7672;50.834;6.286;2022-10-17T00:47:52;99822.31;;;20.24
15144;BMP180;7672;50.834;6.286;2022-10-17T00:50:21;99817.06;;;20.27
15144;BMP180;7672;50.834;6.286;2022-10-17T00:52:50;99814.34;;;20.32
15144;BMP180;7672;50.834;6.286;2022-10-17T00:55:26;99819.31;;;20.36
15144;BMP180;7672;50.834;6.286;2022-10-17T00:57:59;99822.63;;;20.40
15144;BMP180;7672;50.834;6.286;2022-10-17T01:00:28;99817.34;;;20.44
15144;BMP180;7672;50.834;6.286;2022-10-17T01:02:55;99823.22;;;20.48
15144;BMP180;7672;50.834;6.286;2022-10-17T01:05:21;99821.31;;;20.52
15144;BMP180;7672;50.834;6.286;2022-10-17T01:07:51;99805.78;;;20.57
15144;BMP180;7672;50.834;6.286;2022-10-17T01:10:19;99815.00;;;20.62
15144;BMP180;7672;50.834;6.286;2022-10-17T01:13:41;99810.69;;;20.63
15144;BMP180;7672;50.834;6.286;2022-10-17T01:16:16;99795.19;;;20.66
15144;BMP180;7672;50.834;6.286;2022-10-17T01:19:13;99799.31;;;20.70
15144;BMP180;7672;50.834;6.286;2022-10-17T01:21:59;99800.91;;;20.74
15144;BMP180;7672;50.834;6.286;2022-10-17T01:24:54;99808.44;;;20.78
15144;BMP180;7672;50.834;6.286;2022-10-17T01:27:51;99802.38;;;20.81
15144;BMP180;7672;50.834;6.286;2022-10-17T01:33:22;99810.75;;;20.86
15144;BMP180;7672;50.834;6.286;2022-10-17T01:35:57;99805.59;;;20.86
15144;BMP180;7672;50.834;6.286;2022-10-17T01:38:48;99803.84;;;20.88
15144;BMP180;7672;50.834;6.286;2022-10-17T01:41:46;99803.97;;;20.85
15144;BMP180;7672;50.834;6.286;2022-10-17T01:44:39;99815.94;;;20.84
15144;BMP180;7672;50.834;6.286;2022-10-17T01:47:14;99802.22;;;20.85
15144;BMP180;7672;50.834;6.286;2022-10-17T01:49:44;99801.31;;;20.86
15144;BMP180;7672;50.834;6.286;2022-10-17T01:52:26;99801.22;;;20.89
15144;BMP180;7672;50.834;6.286;2022-10-17T01:55:09;99791.75;;;20.90
15144;BMP180;7672;50.834;6.286;2022-10-17T01:57:47;99790.81;;;20.92
15144;BMP180;7672;50.834;6.286;2022-10-17T02:00:23;99801.00;;;20.95
15144;BMP180;7672;50.834;6.286;2022-10-17T02:03:02;99792.41;;;20.96
15144;BMP180;7672;50.834;6.286;2022-10-17T02:05:37;99788.03;;;20.98
15144;BMP180;7672;50.834;6.286;2022-10-17T02:08:05;99786.25;;;21.00
15144;BMP180;7672;50.834;6.286;2022-10-17T02:11:03;99786.13;;;21.03
15144;BMP180;7672;50.834;6.286;2022-10-17T02:16:50;99786.19;;;21.02
15144;BMP180;7672;50.834;6.286;2022-10-17T02:19:43;99784.44;;;21.02
15144;BMP180;7672;50.834;6.286;2022-10-17T02:22:47;99784.44;;;21.02
15144;BMP180;7672;50.834;6.286;2022-10-17T02:25:48;99778.44;;;21.03
15144;BMP180;7672;50.834;6.286;2022-10-17T02:28:41;99781.78;;;21.05
15144;BMP180;7672;50.834;6.286;2022-10-17T02:31:20;99773.91;;;21.10
15144;BMP180;7672;50.834;6.286;2022-10-17T02:33:55;99775.50;;;21.12
15144;BMP180;7672;50.834;6.286;2022-10-17T02:36:32;99773.75;;;21.14
15144;BMP180;7672;50.834;6.286;2022-10-17T02:39:03;99773.75;;;21.14
15144;BMP180;7672;50.834;6.286;2022-10-17T02:41:31;99778.75;;;21.17
15144;BMP180;7672;50.834;6.286;2022-10-17T02:44:02;99780.38;;;21.19
15144;BMP180;7672;50.834;6.286;2022-10-17T02:46:32;99773.47;;;21.21
15144;BMP180;7672;50.834;6.286;2022-10-17T02:49:28;99781.16;;;21.21
15144;BMP180;7672;50.834;6.286;2022-10-17T02:54:51;99775.84;;;21.26
15144;BMP180;7672;50.834;6.286;2022-10-17T02:58:10;99777.53;;;21.27
15144;BMP180;7672;50.834;6.286;2022-10-17T03:00:30;99774.06;;;21.28
15144;BMP180;7672;50.834;6.286;2022-10-17T03:02:58;99779.06;;;21.31
15144;BMP180;7672;50.834;6.286;2022-10-17T03:05:29;99775.50;;;21.35
15144;BMP180;7672;50.834;6.286;2022-10-17T03:07:56;99771.97;;;21.37
15144;BMP180;7672;50.834;6.286;2022-10-17T03:10:23;99776.94;;;21.42
15144;BMP180;7672;50.834;6.286;2022-10-17T03:12:49;99779.31;;;21.46
15144;BMP180;7672;50.834;6.286;2022-10-17T03:15:16;99783.44;;;21.50
15144;BMP180;7672;50.834;6.286;2022-10-17T03:17:43;99782.47;;;21.54
15144;BMP180;7672;50.834;6.286;2022-10-17T03:20:11;99786.66;;;21.57
15144;BMP180;7672;50.834;6.286;2022-10-17T03:22:37;99794.28;;;21.60
15144;BMP180;7672;50.834;6.286;2022-10-17T03:25:04;99790.75;;;21.62
15144;BMP180;7672;50.834;6.286;2022-10-17T03:27:31;99802.66;;;21.65
15144;BMP180;7672;50.834;6.286;2022-10-17T03:29:58;99801.72;;;21.66
15144;BMP180;7672;50.834;6.286;2022-10-17T03:32:25;99795.63;;;21.68
15144;BMP180;7672;50.834;6.286;2022-10-17T03:34:52;99798.09;;;21.71
15144;BMP180;7672;50.834;6.286;2022-10-17T03:37:18;99799.72;;;21.74
15144;BMP180;7672;50.834;6.286;2022-10-17T03:39:45;99798.75;;;21.76
15144;BMP180;7672;50.834;6.286;2022-10-17T03:42:12;99793.47;;;21.79
15144;BMP180;7672;50.834;6.286;2022-10-17T03:44:39;99805.41;;;21.81
15144;BMP180;7672;50.834;6.286;2022-10-17T03:47:06;99807.06;;;21.82
15144;BMP180;7672;50.834;6.286;2022-10-17T03:49:37;99805.31;;;21.83
15144;BMP180;7672;50.834;6.286;2022-10-17T03:52:04;99806.13;;;21.85
15144;BMP180;7672;50.834;6.286;2022-10-17T03:54:31;99812.97;;;21.84
15144;BMP180;7672;50.834;6.286;2022-10-17T03:56:57;99806.13;;;21.85
15144;BMP180;7672;50.834;6.286;2022-10-17T03:59:24;99813.91;;;21.83
15144;BMP180;7672;50.834;6.286;2022-10-17T04:01:51;99818.19;;;21.83
15144;BMP180;7672;50.834;6.286;2022-10-17T04:04:18;99819.94;;;21.82
15144;BMP180;7672;50.834;6.286;2022-10-17T04:06:45;99809.72;;;21.81
15144;BMP180;7672;50.834;6.286;2022-10-17T04:09:11;99814.91;;;21.79
15144;BMP180;7672;50.834;6.286;2022-10-17T04:11:38;99811.50;;;21.79
15144;BMP180;7672;50.834;6.286;2022-10-17T04:14:05;99813.34;;;21.75
15144;BMP180;7672;50.834;6.286;2022-10-17T04:16:32;99807.38;;;21.75
15144;BMP180;7672;50.834;6.286;2022-10-17T04:18:59;99811.69;;;21.75
15144;BMP180;7672;50.834;6.286;2022-10-17T04:21:27;99810.84;;;21.74
15144;BMP180;7672;50.834;6.286;2022-10-17T04:23:59;99813.47;;;21.73
15144;BMP180;7672;50.834;6.286;2022-10-17T04:26:26;99813.47;;;21.73
15144;BMP180;7672;50.834;6.286;2022-10-17T04:28:53;99816.94;;;21.72
15144;BMP180;7672;50.834;6.286;2022-10-17T04:31:20;99819.44;;;21.73
15144;BMP180;7672;50.834;6.286;2022-10-17T04:33:49;99823.75;;;21.73
15144;BMP180;7672;50.834;6.286;2022-10-17T04:36:18;99825.53;;;21.71
15144;BMP180;7672;50.834;6.286;2022-10-17T04:38:46;99822.97;;;21.71
15144;BMP180;7672;50.834;6.286;2022-10-17T04:41:15;99817.06;;;21.69
15144;BMP180;7672;50.834;6.286;2022-10-17T04:43:43;99818.78;;;21.68
15144;BMP180;7672;50.834;6.286;2022-10-17T04:46:15;99817.16;;;21.66
15144;BMP180;7672;50.834;6.286;2022-10-17T04:48:42;99822.31;;;21.66
15144;BMP180;7672;50.834;6.286;2022-10-17T04:51:16;99826.56;;;21.67
15144;BMP180;7672;50.834;6.286;2022-10-17T04:53:48;99820.53;;;21.68
15144;BMP180;7672;50.834;6.286;2022-10-17T04:56:19;99834.19;;;21.70
15144;BMP180;7672;50.834;6.286;2022-10-17T04:58:47;99831.63;;;21.70
15144;BMP180;7672;50.834;6.286;2022-10-17T05:01:17;99835.84;;;21.71
15144;BMP180;7672;50.834;6.286;2022-10-17T05:03:45;99830.69;;;21.71
15144;BMP180;7672;50.834;6.286;2022-10-17T05:06:17;99838.38;;;21.72
15144;BMP180;7672;50.834;6.286;2022-10-17T05:08:45;99835.84;;;21.71
15144;BMP180;7672;50.834;6.286;2022-10-17T05:11:27;99842.66;;;21.72
15144;BMP180;7672;50.834;6.286;2022-10-17T05:14:00;99836.69;;;21.71
15144;BMP180;7672;50.834;6.286;2022-10-17T05:16:28;99849.63;;;21.70
15144;BMP180;7672;50.834;6.286;2022-10-17T05:18:56;99852.13;;;21.71
15144;BMP180;7672;50.834;6.286;2022-10-17T05:21:25;99859.00;;;21.71
15144;BMP180;7672;50.834;6.286;2022-10-17T05:23:52;99853.91;;;21.69
15144;BMP180;7672;50.834;6.286;2022-10-17T05:26:21;99854.75;;;21.70
15144;BMP180;7672;50.834;6.286;2022-10-17T05:28:48;99852.28;;;21.67
15144;BMP180;7672;50.834;6.286;2022-10-17T05:31:14;99855.66;;;21.69
15144;BMP180;7672;50.834;6.286;2022-10-17T05:33:41;99852.28;;;21.67
15144;BMP180;7672;50.834;6.286;2022-10-17T05:36:08;99863.44;;;21.67
15144;BMP180;7672;50.834;6.286;2022-10-17T05:38:35;99860.06;;;21.65
15144;BMP180;7672;50.834;6.286;2022-10-17T05:41:04;99855.88;;;21.63
15144;BMP180;7672;50.834;6.286;2022-10-17T05:43:32;99860.19;;;21.62
15144;BMP180;7672;50.834;6.286;2022-10-17T05:46:03;99860.25;;;21.61
15144;BMP180;7672;50.834;6.286;2022-10-17T05:48:30;99865.44;;;21.59
15144;BMP180;7672;50.834;6.286;2022-10-17T05:51:00;99869.81;;;21.57
15144;BMP180;7672;50.834;6.286;2022-10-17T05:53:33;99869.75;;;21.59
15144;BMP180;7672;50.834;6.286;2022-10-17T05:56:03;99862.09;;;21.57
15144;BMP180;7672;50.834;6.286;2022-10-17T05:58:31;99869.03;;;21.55
15144;BMP180;7672;50.834;6.286;2022-10-17T06:01:18;99874.28;;;21.52
15144;BMP180;7672;50.834;6.286;2022-10-17T06:03:45;99864.94;;;21.50
15144;BMP180;7672;50.834;6.286;2022-10-17T06:06:13;99867.50;;;21.50
15144;BMP180;7672;50.834;6.286;2022-10-17T06:08:40;99874.38;;;21.49
15144;BMP180;7672;50.834;6.286;2022-10-17T06:11:07;99876.03;;;21.50
15144;BMP180;7672;50.834;6.286;2022-10-17T06:13:37;99875.13;;;21.53
15144;BMP180;7672;50.834;6.286;2022-10-17T06:16:06;99884.31;;;21.60
15144;BMP180;7672;50.834;6.286;2022-10-17T06:18:33;99876.28;;;21.67
15144;BMP180;7672;50.834;6.286;2022-10-17T06:21:04;99875.88;;;21.77
15144;BMP180;7672;50.834;6.286;2022-10-17T06:23:31;99879.06;;;21.84
15144;BMP180;7672;50.834;6.286;2022-10-17T06:26:00;99879.59;;;21.92
15144;BMP180;7672;50.834;6.286;2022-10-17T06:28:27;99876.06;;;21.94
15144;BMP180;7672;50.834;6.286;2022-10-17T06:30:54;99883.50;;;22.02
15144;BMP180;7672;50.834;6.286;2022-10-17T06:33:22;99884.16;;;22.07
15144;BMP180;7672;50.834;6.286;2022-10-17T06:35:55;99894.16;;;22.14
15144;BMP180;7672;50.834;6.286;2022-10-17T06:38:22;99898.16;;;22.21
15144;BMP180;7672;50.834;6.286;2022-10-17T06:40:49;99894.28;;;22.33
15144;BMP180;7672;50.834;6.286;2022-10-17T06:43:16;99893.59;;;22.49
15144;BMP180;7672;50.834;6.286;2022-10-17T06:45:45;99903.69;;;22.75
15144;BMP180;7672;50.834;6.286;2022-10-17T06:48:13;99902.56;;;23.02
15144;BMP180;7672;50.834;6.286;2022-10-17T06:50:40;99904.63;;;23.32
15144;BMP180;7672;50.834;6.286;2022-10-17T06:53:07;99901.53;;;23.62
15144;BMP180;7672;50.834;6.286;2022-10-17T06:55:33;99898.25;;;23.95
15144;BMP180;7672;50.834;6.286;2022-10-17T06:58:00;99907.28;;;24.22
15144;BMP180;7672;50.834;6.286;2022-10-17T07:00:27;99899.47;;;24.42
15144;BMP180;7672;50.834;6.286;2022-10-17T07:02:54;99902.91;;;24.59
15144;BMP180;7672;50.834;6.286;2022-10-17T07:05:20;99900.16;;;24.79
15144;BMP180;7672;50.834;6.286;2022-10-17T07:07:47;99908.69;;;24.98
15144;BMP180;7672;50.834;6.286;2022-10-17T07:10:17;99896.47;;;25.17
15144;BMP180;7672;50.834;6.286;2022-10-17T07:12:44;99888.00;;;25.30
15144;BMP180;7672;50.834;6.286;2022-10-17T07:15:11;99900.56;;;25.38
15144;BMP180;7672;50.834;6.286;2022-10-17T07:17:38;99902.75;;;25.45
15144;BMP180;7672;50.834;6.286;2022-10-17T07:20:06;99908.34;;;25.53
15144;BMP180;7672;50.834;6.286;2022-10-17T07:22:33;99907.72;;;25.65
15144;BMP180;7672;50.834;6.286;2022-10-17T07:24:59;99908.56;;;25.81
15144;BMP180;7672;50.834;6.286;2022-10-17T07:27:26;99908.47;;;25.98
15144;BMP180;7672;50.834;6.286;2022-10-17T07:29:53;99916.25;;;26.13
15144;BMP180;7672;50.834;6.286;2022-10-17T07:32:20;99917.38;;;26.23
15144;BMP180;7672;50.834;6.286;2022-10-17T07:34:47;99922.75;;;26.35
15144;BMP180;7672;50.834;6.286;2022-10-17T07:37:14;99925.50;;;26.48
15144;BMP180;7672;50.834;6.286;2022-10-17T07:39:41;99938.72;;;26.59
15144;BMP180;7672;50.834;6.286;2022-10-17T07:42:07;99929.53;;;26.67
15144;BMP180;7672;50.834;6.286;2022-10-17T07:44:34;99929.88;;;26.77
15144;BMP180;7672;50.834;6.286;2022-10-17T07:47:01;99926.75;;;26.85
15144;BMP180;7672;50.834;6.286;2022-10-17T07:49:28;99930.63;;;26.92
15144;BMP180;7672;50.834;6.286;2022-10-17T07:51:56;99940.69;;;26.98
15144;BMP180;7672;50.834;6.286;2022-10-17T07:54:22;99942.38;;;26.99
15144;BMP180;7672;50.834;6.286;2022-10-17T07:56:49;99948.66;;;26.95
15144;BMP180;7672;50.834;6.286;2022-10-17T07:59:19;99949.72;;;26.91
15144;BMP180;7672;50.834;6.286;2022-10-17T08:01:46;99950.09;;;26.85
15144;BMP180;7672;50.834;6.286;2022-10-17T08:04:12;99952.09;;;26.81
15144;BMP180;7672;50.834;6.286;2022-10-17T08:06:39;99953.22;;;26.77
15144;BMP180;7672;50.834;6.286;2022-10-17T08:09:06;99948.19;;;26.74
15144;BMP180;7672;50.834;6.286;2022-10-17T08:11:33;99948.75;;;26.79
15144;BMP180;7672;50.834;6.286;2022-10-17T08:14:01;99959.53;;;26.86
15144;BMP180;7672;50.834;6.286;2022-10-17T08:16:28;99955.09;;;26.88
15144;BMP180;7672;50.834;6.286;2022-10-17T08:18:55;99963.97;;;26.84
15144;BMP180;7672;50.834;6.286;2022-10-17T08:21:22;99970.34;;;26.79
15144;BMP180;7672;50.834;6.286;2022-10-17T08:23:48;99977.66;;;26.73
15144;BMP180;7672;50.834;6.286;2022-10-17T08:26:16;99980.56;;;26.67
15144;BMP180;7672;50.834;6.286;2022-10-17T08:28:46;99991.28;;;26.61
15144;BMP180;7672;50.834;6.286;2022-10-17T08:31:18;99996.84;;;26.55
15144;BMP180;7672;50.834;6.286;2022-10-17T08:33:46;99987.47;;;26.52
15144;BMP180;7672;50.834;6.286;2022-10-17T08:36:17;100000.41;;;26.68
15144;BMP180;7672;50.834;6.286;2022-10-17T08:38:44;99994.38;;;26.83
15144;BMP180;7672;50.834;6.286;2022-10-17T08:47:28;100010.13;;;27.52
15144;BMP180;7672;50.834;6.286;2022-10-17T08:50:04;100013.13;;;27.60
15144;BMP180;7672;50.834;6.286;2022-10-17T08:52:45;100021.63;;;27.62
15144;BMP180;7672;50.834;6.286;2022-10-17T08:55:26;100012.56;;;27.69
15144;BMP180;7672;50.834;6.286;2022-10-17T08:57:54;100016.19;;;27.80
15144;BMP180;7672;50.834;6.286;2022-10-17T09:00:21;100020.16;;;27.86
15144;BMP180;7672;50.834;6.286;2022-10-17T09:03:22;100033.59;;;27.78
15144;BMP180;7672;50.834;6.286;2022-10-17T09:06:07;100039.34;;;27.69
15144;BMP180;7672;50.834;6.286;2022-10-17T09:09:20;100032.81;;;27.48
15144;BMP180;7672;50.834;6.286;2022-10-17T09:12:11;100038.09;;;27.33
15144;BMP180;7672;50.834;6.286;2022-10-17T09:15:40;100046.72;;;27.04
15144;BMP180;7672;50.834;6.286;2022-10-17T09:18:34;100042.88;;;26.81
15144;BMP180;7672;50.834;6.286;2022-10-17T09:21:35;100043.00;;;26.64
15144;BMP180;7672;50.834;6.286;2022-10-17T09:24:14;100049.19;;;26.46
15144;BMP180;7672;50.834;6.286;2022-10-17T09:26:45;100055.09;;;26.32
15144;BMP180;7672;50.834;6.286;2022-10-17T09:29:24;100055.72;;;26.20
15144;BMP180;7672;50.834;6.286;2022-10-17T09:32:23;100071.16;;;26.07
15144;BMP180;7672;50.834;6.286;2022-10-17T09:34:52;100066.41;;;25.99
15144;BMP180;7672;50.834;6.286;2022-10-17T09:37:29;100065.72;;;25.96
15144;BMP180;7672;50.834;6.286;2022-10-17T09:39:58;100073.72;;;25.91
15144;BMP180;7672;50.834;6.286;2022-10-17T09:42:25;100073.06;;;25.88
15144;BMP180;7672;50.834;6.286;2022-10-17T09:48:04;100071.94;;;25.76
15144;BMP180;7672;50.834;6.286;2022-10-17T09:50:36;100082.53;;;25.72
15144;BMP180;7672;50.834;6.286;2022-10-17T09:53:13;100090.44;;;25.69
15144;BMP180;7672;50.834;6.286;2022-10-17T09:55:51;100087.25;;;25.64
15144;BMP180;7672;50.834;6.286;2022-10-17T09:58:21;100095.13;;;25.61
15144;BMP180;7672;50.834;6.286;2022-10-17T10:00:48;100094.31;;;25.60
15144;BMP180;7672;50.834;6.286;2022-10-17T10:03:19;100097.81;;;25.59
15144;BMP180;7672;50.834;6.286;2022-10-17T10:06:06;100102.47;;;25.53
15144;BMP180;7672;50.834;6.286;2022-10-17T10:08:53;100099.34;;;25.47
15144;BMP180;7672;50.834;6.286;2022-10-17T10:11:49;100108.41;;;25.38
15144;BMP180;7672;50.834;6.286;2022-10-17T10:14:36;100120.78;;;25.32
15144;BMP180;7672;50.834;6.286;2022-10-17T10:17:23;100128.63;;;25.30
15144;BMP180;7672;50.834;6.286;2022-10-17T10:19:51;100126.41;;;25.23
15144;BMP180;7672;50.834;6.286;2022-10-17T10:22:21;100135.16;;;25.20
15144;BMP180;7672;50.834;6.286;2022-10-17T10:25:15;100131.22;;;25.13
15144;BMP180;7672;50.834;6.286;2022-10-17T10:27:45;100120.09;;;25.11
15144;BMP180;7672;50.834;6.286;2022-10-17T10:30:29;100110.88;;;25.06
15144;BMP180;7672;50.834;6.286;2022-10-17T10:32:59;100112.63;;;25.05
15144;BMP180;7672;50.834;6.286;2022-10-17T10:35:33;100107.44;;;25.05
15144;BMP180;7672;50.834;6.286;2022-10-17T10:38:08;100112.50;;;25.08
15144;BMP180;7672;50.834;6.286;2022-10-17T10:40:45;100099.56;;;25.08
15144;BMP180;7672;50.834;6.286;2022-10-17T10:46:01;100125.34;;;25.10
15144;BMP180;7672;50.834;6.286;2022-10-17T10:48:50;100132.88;;;25.14
15144;BMP180;7672;50.834;6.286;2022-10-17T10:51:24;100128.38;;;25.18
15144;BMP180;7672;50.834;6.286;2022-10-17T10:54:27;100121.41;;;25.20
15144;BMP180;7672;50.834;6.286;2022-10-17T10:57:01;100129.72;;;25.26
15144;BMP180;7672;50.834;6.286;2022-10-17T11:05:45;100145.22;;;25.43
15144;BMP180;7672;50.834;6.286;2022-10-17T11:08:32;100154.47;;;25.49
15144;BMP180;7672;50.834;6.286;2022-10-17T11:11:19;100154.03;;;25.57
15144;BMP180;7672;50.834;6.286;2022-10-17T11:14:01;100167.34;;;25.67
15144;BMP180;7672;50.834;6.286;2022-10-17T11:16:36;100174.59;;;25.77
15144;BMP180;7672;50.834;6.286;2022-10-17T11:19:15;100186.16;;;25.87
15144;BMP180;7672;50.834;6.286;2022-10-17T11:27:23;100206.44;;;26.13
15144;BMP180;7672;50.834;6.286;2022-10-17T11:29:50;100212.06;;;26.21
15144;BMP180;7672;50.834;6.286;2022-10-17T11:35:23;100210.88;;;26.26
15144;BMP180;7672;50.834;6.286;2022-10-17T11:40:46;100218.66;;;26.26
15144;BMP180;7672;50.834;6.286;2022-10-17T11:43:23;100223.09;;;26.24
15144;BMP180;7672;50.834;6.286;2022-10-17T11:45:58;100227.50;;;26.22
15144;BMP180;7672;50.834;6.286;2022-10-17T11:49:10;100231.09;;;26.20
15144;BMP180;7672;50.834;6.286;2022-10-17T11:54:44;100232.94;;;26.18
15144;BMP180;7672;50.834;6.286;2022-10-17T11:57:39;100214.66;;;26.21
15144;BMP180;7672;50.834;6.286;2022-10-17T12:00:39;100218.91;;;26.22
15144;BMP180;7672;50.834;6.286;2022-10-17T12:06:28;100224.72;;;26.27
15144;BMP180;7672;50.834;6.286;2022-10-17T12:09:15;100237.41;;;26.31
15144;BMP180;7672;50.834;6.286;2022-10-17T12:11:54;100226.97;;;26.33
15144;BMP180;7672;50.834;6.286;2022-10-17T12:14:41;100231.78;;;26.40
15144;BMP180;7672;50.834;6.286;2022-10-17T12:22:54;100240.53;;;26.55
15144;BMP180;7672;50.834;6.286;2022-10-17T12:25:32;100229.19;;;26.57
15144;BMP180;7672;50.834;6.286;2022-10-17T12:30:33;100247.25;;;26.59
15144;BMP180;7672;50.834;6.286;2022-10-17T12:35:38;100240.69;;;26.52
15144;BMP180;7672;50.834;6.286;2022-10-17T12:46:02;100258.41;;;26.44
15144;BMP180;7672;50.834;6.286;2022-10-17T12:51:14;100264.56;;;26.41
15144;BMP180;7672;50.834;6.286;2022-10-17T12:54:11;100265.72;;;26.36
15144;BMP180;7672;50.834;6.286;2022-10-17T12:56:48;100254.66;;;26.32
15144;BMP180;7672;50.834;6.286;2022-10-17T12:59:27;100257.31;;;26.31
15144;BMP180;7672;50.834;6.286;2022-10-17T13:02:00;100259.22;;;26.27
15144;BMP180;7672;50.834;6.286;2022-10-17T13:04:30;100261.03;;;26.25
15144;BMP180;7672;50.834;6.286;2022-10-17T13:06:58;100261.97;;;26.24
15144;BMP180;7672;50.834;6.286;2022-10-17T13:09:34;100263.78;;;26.22
15144;BMP180;7672;50.834;6.286;2022-10-17T13:12:11;100270.13;;;26.17
15144;BMP180;7672;50.834;6.286;2022-10-17T13:14:41;100266.84;;;26.14
15144;BMP180;7672;50.834;6.286;2022-10-17T13:17:27;100270.66;;;26.07
15144;BMP180;7672;50.834;6.286;2022-10-17T13:19:57;100272.66;;;26.02
15144;BMP180;7672;50.834;6.286;2022-10-17T13:22:30;100274.56;;;25.98
15144;BMP180;7672;50.834;6.286;2022-10-17T13:25:18;100275.69;;;25.93
15144;BMP180;7672;50.834;6.286;2022-10-17T13:27:47;100285.19;;;25.92
15144;BMP180;7672;50.834;6.286;2022-10-17T13:30:29;100286.09;;;25.91
15144;BMP180;7672;50.834;6.286;2022-10-17T13:32:59;100296.47;;;25.91
15144;BMP180;7672;50.834;6.286;2022-10-17T13:35:33;100283.47;;;25.93
15144;BMP180;7672;50.834;6.286;2022-10-17T13:38:28;100292.97;;;25.92
15144;BMP180;7672;50.834;6.286;2022-10-17T13:40:56;100288.69;;;25.91
15144;BMP180;7672;50.834;6.286;2022-10-17T13:43:42;100300.91;;;25.89
15144;BMP180;7672;50.834;6.286;2022-10-17T13:46:32;100298.44;;;25.86
15144;BMP180;7672;50.834;6.286;2022-10-17T13:49:36;100298.53;;;25.85
15144;BMP180;7672;50.834;6.286;2022-10-17T13:52:14;100295.94;;;25.85
15144;BMP180;7672;50.834;6.286;2022-10-17T13:54:47;100301.03;;;25.86
15144;BMP180;7672;50.834;6.286;2022-10-17T13:57:21;100306.09;;;25.89
15144;BMP180;7672;50.834;6.286;2022-10-17T13:59:56;100310.28;;;25.92
15144;BMP180;7672;50.834;6.286;2022-10-17T14:02:28;100317.06;;;25.94
15144;BMP180;7672;50.834;6.286;2022-10-17T14:05:21;100322.25;;;25.94
15144;BMP180;7672;50.834;6.286;2022-10-17T14:07:56;100336.81;;;25.97
15144;BMP180;7672;50.834;6.286;2022-10-17T14:10:41;100331.63;;;25.97
15144;BMP180;7672;50.834;6.286;2022-10-17T14:13:31;100336.03;;;25.95
15144;BMP180;7672;50.834;6.286;2022-10-17T14:16:02;100334.25;;;25.95
15144;BMP180;7672;50.834;6.286;2022-10-17T14:18:33;100345.47;;;25.96
15144;BMP180;7672;50.834;6.286;2022-10-17T14:21:04;100339.53;;;25.94
15144;BMP180;7672;50.834;6.286;2022-10-17T14:24:15;100342.34;;;25.89
15144;BMP180;7672;50.834;6.286;2022-10-17T14:26:55;100345.00;;;25.88
15144;BMP180;7672;50.834;6.286;2022-10-17T14:29:49;100362.44;;;25.84
15144;BMP180;7672;50.834;6.286;2022-10-17T14:32:18;100356.41;;;25.84
15144;BMP180;7672;50.834;6.286;2022-10-17T14:34:45;100364.03;;;25.87
15144;BMP180;7672;50.834;6.286;2022-10-17T14:37:43;100363.16;;;25.88
15144;BMP180;7672;50.834;6.286;2022-10-17T14:40:20;100368.25;;;25.89
15144;BMP180;7672;50.834;6.286;2022-10-17T14:42:52;100361.22;;;25.91
15144;BMP180;7672;50.834;6.286;2022-10-17T14:45:35;100370.06;;;25.87
15144;BMP180;7672;50.834;6.286;2022-10-17T14:48:08;100364.88;;;25.87
15144;BMP180;7672;50.834;6.286;2022-10-17T14:50:36;100366.72;;;25.85
15144;BMP180;7672;50.834;6.286;2022-10-17T14:55:38;100386.50;;;25.86
15144;BMP180;7672;50.834;6.286;2022-10-17T14:58:27;100367.75;;;25.81
15144;BMP180;7672;50.834;6.286;2022-10-17T15:00:55;100359.97;;;25.81
15144;BMP180;7672;50.834;6.286;2022-10-17T15:03:23;100353.97;;;25.81
15144;BMP180;7672;50.834;6.286;2022-10-17T15:05:52;100369.59;;;25.79
15144;BMP180;7672;50.834;6.286;2022-10-17T15:08:22;100383.53;;;25.77
15144;BMP180;7672;50.834;6.286;2022-10-17T15:10:50;100394.84;;;25.74
15144;BMP180;7672;50.834;6.286;2022-10-17T15:13:17;100405.38;;;25.71
15144;BMP180;7672;50.834;6.286;2022-10-17T15:16:33;100406.78;;;25.58
15144;BMP180;7672;50.834;6.286;2022-10-17T15:19:00;100412.19;;;25.54
15144;BMP180;7672;50.834;6.286;2022-10-17T15:21:28;100421.06;;;25.49
15144;BMP180;7672;50.834;6.286;2022-10-17T15:24:13;100413.72;;;25.40
15144;BMP180;7672;50.834;6.286;2022-10-17T15:26:41;100422.59;;;25.34
15144;BMP180;7672;50.834;6.286;2022-10-17T15:29:14;100434.13;;;25.27
15144;BMP180;7672;50.834;6.286;2022-10-17T15:31:41;100442.06;;;25.23
15144;BMP180;7672;50.834;6.286;2022-10-17T15:34:08;100450.09;;;25.17
15144;BMP180;7672;50.834;6.286;2022-10-17T15:36:48;100448.69;;;25.10
15144;BMP180;7672;50.834;6.286;2022-10-17T15:39:15;100463.69;;;25.02
15144;BMP180;7672;50.834;6.286;2022-10-17T15:41:42;100460.63;;;24.92
15144;BMP180;7672;50.834;6.286;2022-10-17T15:44:09;100465.28;;;24.85
15144;BMP180;7672;50.834;6.286;2022-10-17T15:46:39;100466.63;;;24.73
15144;BMP180;7672;50.834;6.286;2022-10-17T15:49:13;100482.75;;;24.58
15144;BMP180;7672;50.834;6.286;2022-10-17T15:52:01;100470.78;;;24.34
15144;BMP180;7672;50.834;6.286;2022-10-17T15:54:28;100487.78;;;24.19
15144;BMP180;7672;50.834;6.286;2022-10-17T15:56:55;100487.63;;;24.00
15144;BMP180;7672;50.834;6.286;2022-10-17T15:59:29;100478.84;;;23.83
15144;BMP180;7672;50.834;6.286;2022-10-17T16:01:57;100483.00;;;23.64
15144;BMP180;7672;50.834;6.286;2022-10-17T16:04:27;100472.41;;;23.47